sensor_id;sensor_type;location;lat;lon;timestamp;pressure;altitude;pressure_sealevel;temperature;humidity
62849;BME280;48941;49.516;8.286;2023-05-03T00:02:21;101422.16;;;9.20;72.90
62849;BME280;48941;49.516;8.286;2023-05-03T00:04:51;101421.47;;;9.16;72.89
62849;BME280;48941;49.516;8.286;2023-05-03T00:07:19;101420.13;;;9.09;73.33
62849;BME280;48941;49.516;8.286;2023-05-03T00:09:48;101412.94;;;9.11;72.84
62849;BME280;48941;49.516;8.286;2023-05-03T00:12:16;101415.84;;;9.06;72.45
62849;BME280;48941;49.516;8.286;2023-05-03T00:14:44;101421.59;;;8.98;73.01
62849;BME280;48941;49.516;8.286;2023-05-03T00:17:13;101418.44;;;8.92;72.82
62849;BME280;48941;49.516;8.286;2023-05-03T00:19:41;101419.47;;;8.89;72.68
62849;BME280;48941;49.516;8.286;2023-05-03T00:22:09;101427.25;;;8.92;72.49
62849;BME280;48941;49.516;8.286;2023-05-03T00:24:38;101420.16;;;8.93;71.91
62849;BME280;48941;49.516;8.286;2023-05-03T00:27:05;101414.94;;;8.91;71.73
62849;BME280;48941;49.516;8.286;2023-05-03T00:29:33;101420.16;;;8.93;71.68
62849;BME280;48941;49.516;8.286;2023-05-03T00:32:01;101402.69;;;8.89;71.78
62849;BME280;48941;49.516;8.286;2023-05-03T00:34:30;101403.59;;;8.88;71.58
62849;BME280;48941;49.516;8.286;2023-05-03T00:36:58;101413.19;;;8.90;71.63
62849;BME280;48941;49.516;8.286;2023-05-03T00:39:28;101406.19;;;8.89;71.45
62849;BME280;48941;49.516;8.286;2023-05-03T00:41:56;101401.81;;;8.88;71.37
62849;BME280;48941;49.516;8.286;2023-05-03T00:44:24;101400.19;;;8.86;71.32
62849;BME280;48941;49.516;8.286;2023-05-03T00:46:53;101399.41;;;8.84;71.39
62849;BME280;48941;49.516;8.286;2023-05-03T00:49:23;101398.56;;;8.83;70.92
62849;BME280;48941;49.516;8.286;2023-05-03T00:51:53;101388.94;;;8.81;71.01
62849;BME280;48941;49.516;8.286;2023-05-03T00:54:22;101386.56;;;8.76;70.72
62849;BME280;48941;49.516;8.286;2023-05-03T00:56:50;101386.06;;;8.69;70.99
62849;BME280;48941;49.516;8.286;2023-05-03T00:59:18;101384.75;;;8.61;70.98
62849;BME280;48941;49.516;8.286;2023-05-03T01:01:47;101381.25;;;8.60;71.53
62849;BME280;48941;49.516;8.286;2023-05-03T01:04:16;101382.38;;;8.56;71.26
62849;BME280;48941;49.516;8.286;2023-05-03T01:06:53;101391.38;;;8.53;71.42
62849;BME280;48941;49.516;8.286;2023-05-03T01:09:30;101389.06;;;8.47;71.59
62849;BME280;48941;49.516;8.286;2023-05-03T01:12:08;101388.09;;;8.48;71.69
62849;BME280;48941;49.516;8.286;2023-05-03T01:14:47;101386.56;;;8.44;71.71
62849;BME280;48941;49.516;8.286;2023-05-03T01:17:23;101381.25;;;8.44;71.83
62849;BME280;48941;49.516;8.286;2023-05-03T01:19:56;101385.84;;;8.41;71.73
62849;BME280;48941;49.516;8.286;2023-05-03T01:22:31;101382.22;;;8.43;71.92
62849;BME280;48941;49.516;8.286;2023-05-03T01:25:05;101377.88;;;8.41;71.94
62849;BME280;48941;49.516;8.286;2023-05-03T01:27:34;101383.28;;;8.39;72.00
62849;BME280;48941;49.516;8.286;2023-05-03T01:30:03;101380.88;;;8.34;71.87
62849;BME280;48941;49.516;8.286;2023-05-03T01:32:40;101380.22;;;8.31;72.09
62849;BME280;48941;49.516;8.286;2023-05-03T01:35:19;101370.78;;;8.25;72.46
62849;BME280;48941;49.516;8.286;2023-05-03T01:37:50;101371.00;;;8.21;72.69
62849;BME280;48941;49.516;8.286;2023-05-03T01:40:21;101364.84;;;8.20;72.70
62849;BME280;48941;49.516;8.286;2023-05-03T01:42:50;101361.50;;;8.16;72.57
62849;BME280;48941;49.516;8.286;2023-05-03T01:45:18;101360.66;;;8.16;72.57
62849;BME280;48941;49.516;8.286;2023-05-03T01:47:46;101371.34;;;8.14;72.88
62849;BME280;48941;49.516;8.286;2023-05-03T01:50:14;101360.91;;;8.11;73.01
62849;BME280;48941;49.516;8.286;2023-05-03T01:52:42;101365.38;;;8.11;73.38
62849;BME280;48941;49.516;8.286;2023-05-03T01:55:10;101373.41;;;8.09;73.35
62849;BME280;48941;49.516;8.286;2023-05-03T01:57:39;101369.03;;;8.08;73.46
62849;BME280;48941;49.516;8.286;2023-05-03T02:00:08;101371.88;;;8.05;73.28
62849;BME280;48941;49.516;8.286;2023-05-03T02:02:36;101365.78;;;8.03;73.48
62849;BME280;48941;49.516;8.286;2023-05-03T02:05:05;101372.19;;;7.99;73.48
62849;BME280;48941;49.516;8.286;2023-05-03T02:07:32;101375.84;;;7.96;73.52
62849;BME280;48941;49.516;8.286;2023-05-03T02:10:00;101379.47;;;7.95;73.50
62849;BME280;48941;49.516;8.286;2023-05-03T02:12:28;101381.34;;;7.93;73.66
62849;BME280;48941;49.516;8.286;2023-05-03T02:14:57;101379.78;;;7.89;73.82
62849;BME280;48941;49.516;8.286;2023-05-03T02:17:26;101384.31;;;7.87;73.70
62849;BME280;48941;49.516;8.286;2023-05-03T02:19:54;101387.97;;;7.85;73.60
62849;BME280;48941;49.516;8.286;2023-05-03T02:22:22;101382.13;;;7.78;73.81
62849;BME280;48941;49.516;8.286;2023-05-03T02:24:50;101387.75;;;7.72;74.38
62849;BME280;48941;49.516;8.286;2023-05-03T02:27:18;101387.91;;;7.69;74.19
62849;BME280;48941;49.516;8.286;2023-05-03T02:29:46;101382.09;;;7.62;73.90
62849;BME280;48941;49.516;8.286;2023-05-03T02:32:15;101379.75;;;7.56;74.30
62849;BME280;48941;49.516;8.286;2023-05-03T02:34:43;101383.44;;;7.53;74.14
62849;BME280;48941;49.516;8.286;2023-05-03T02:37:11;101390.59;;;7.51;74.49
62849;BME280;48941;49.516;8.286;2023-05-03T02:39:39;101388.28;;;7.45;74.37
62849;BME280;48941;49.516;8.286;2023-05-03T02:42:07;101391.13;;;7.41;74.81
62849;BME280;48941;49.516;8.286;2023-05-03T02:44:34;101386.16;;;7.34;74.77
62849;BME280;48941;49.516;8.286;2023-05-03T02:47:02;101397.63;;;7.35;74.66
62849;BME280;48941;49.516;8.286;2023-05-03T02:49:31;101401.25;;;7.32;74.92
62849;BME280;48941;49.516;8.286;2023-05-03T02:51:59;101393.69;;;7.25;74.87
62849;BME280;48941;49.516;8.286;2023-05-03T02:54:27;101399.25;;;7.20;75.13
62849;BME280;48941;49.516;8.286;2023-05-03T02:56:55;101401.03;;;7.20;75.31
62849;BME280;48941;49.516;8.286;2023-05-03T02:59:22;101402.06;;;7.17;75.43
62849;BME280;48941;49.516;8.286;2023-05-03T03:01:50;101402.97;;;7.16;75.36
62849;BME280;48941;49.516;8.286;2023-05-03T03:04:18;101403.94;;;7.15;75.43
62849;BME280;48941;49.516;8.286;2023-05-03T03:06:47;101409.38;;;7.12;75.55
62849;BME280;48941;49.516;8.286;2023-05-03T03:09:15;101405.16;;;7.08;75.28
62849;BME280;48941;49.516;8.286;2023-05-03T03:11:43;101399.31;;;7.01;75.54
62849;BME280;48941;49.516;8.286;2023-05-03T03:14:11;101394.94;;;7.00;75.68
62849;BME280;48941;49.516;8.286;2023-05-03T03:16:39;101397.75;;;6.97;75.66
62849;BME280;48941;49.516;8.286;2023-05-03T03:19:06;101392.59;;;6.94;75.74
62849;BME280;48941;49.516;8.286;2023-05-03T03:21:34;101390.00;;;6.92;75.95
62849;BME280;48941;49.516;8.286;2023-05-03T03:24:04;101393.66;;;6.90;75.79
62849;BME280;48941;49.516;8.286;2023-05-03T03:26:32;101393.81;;;6.87;75.93
62849;BME280;48941;49.516;8.286;2023-05-03T03:28:59;101386.88;;;6.84;76.03
62849;BME280;48941;49.516;8.286;2023-05-03T03:31:27;101387.88;;;6.82;75.91
62849;BME280;48941;49.516;8.286;2023-05-03T03:33:55;101388.03;;;6.78;76.09
62849;BME280;48941;49.516;8.286;2023-05-03T03:36:23;101381.09;;;6.76;76.29
62849;BME280;48941;49.516;8.286;2023-05-03T03:38:50;101381.03;;;6.77;76.59
62849;BME280;48941;49.516;8.286;2023-05-03T03:41:20;101383.59;;;6.79;76.40
62849;BME280;48941;49.516;8.286;2023-05-03T03:43:48;101387.25;;;6.76;76.44
62849;BME280;48941;49.516;8.286;2023-05-03T03:46:16;101376.66;;;6.76;76.77
62849;BME280;48941;49.516;8.286;2023-05-03T03:48:44;101376.81;;;6.73;76.72
62849;BME280;48941;49.516;8.286;2023-05-03T03:51:12;101389.09;;;6.74;76.56
62849;BME280;48941;49.516;8.286;2023-05-03T03:53:39;101378.50;;;6.74;76.72
62849;BME280;48941;49.516;8.286;2023-05-03T03:56:07;101373.28;;;6.73;76.65
62849;BME280;48941;49.516;8.286;2023-05-03T03:58:36;101381.22;;;6.73;76.61
62849;BME280;48941;49.516;8.286;2023-05-03T04:01:04;101379.28;;;6.76;76.44
62849;BME280;48941;49.516;8.286;2023-05-03T04:03:32;101377.53;;;6.77;76.47
62849;BME280;48941;49.516;8.286;2023-05-03T04:06:00;101383.75;;;6.76;76.40
62849;BME280;48941;49.516;8.286;2023-05-03T04:08:28;101384.66;;;6.75;76.78
62849;BME280;48941;49.516;8.286;2023-05-03T04:10:56;101384.81;;;6.72;76.83
62849;BME280;48941;49.516;8.286;2023-05-03T04:13:23;101384.03;;;6.70;76.77
62849;BME280;48941;49.516;8.286;2023-05-03T04:15:54;101391.19;;;6.68;76.79
62849;BME280;48941;49.516;8.286;2023-05-03T04:18:22;101389.56;;;6.65;76.75
62849;BME280;48941;49.516;8.286;2023-05-03T04:20:50;101386.81;;;6.67;76.56
62849;BME280;48941;49.516;8.286;2023-05-03T04:23:19;101391.44;;;6.63;76.77
62849;BME280;48941;49.516;8.286;2023-05-03T04:25:50;101400.16;;;6.65;76.97
62849;BME280;48941;49.516;8.286;2023-05-03T04:28:17;101400.06;;;6.67;77.05
62849;BME280;48941;49.516;8.286;2023-05-03T04:30:45;101391.19;;;6.68;77.01
62849;BME280;48941;49.516;8.286;2023-05-03T04:33:15;101404.28;;;6.71;76.83
62849;BME280;48941;49.516;8.286;2023-05-03T04:35:43;101405.06;;;6.73;76.74
62849;BME280;48941;49.516;8.286;2023-05-03T04:38:10;101401.56;;;6.72;76.90
62849;BME280;48941;49.516;8.286;2023-05-03T04:40:38;101405.94;;;6.73;76.93
62849;BME280;48941;49.516;8.286;2023-05-03T04:43:07;101401.63;;;6.71;76.78
62849;BME280;48941;49.516;8.286;2023-05-03T04:45:34;101405.06;;;6.73;76.62
62849;BME280;48941;49.516;8.286;2023-05-03T04:48:03;101400.53;;;6.75;76.92
62849;BME280;48941;49.516;8.286;2023-05-03T04:50:32;101397.75;;;6.78;76.79
62849;BME280;48941;49.516;8.286;2023-05-03T04:53:00;101402.94;;;6.81;76.87
62849;BME280;48941;49.516;8.286;2023-05-03T04:55:28;101401.91;;;6.84;77.03
62849;BME280;48941;49.516;8.286;2023-05-03T04:57:56;101399.09;;;6.87;76.63
62849;BME280;48941;49.516;8.286;2023-05-03T05:00:24;101401.53;;;6.91;76.82
62849;BME280;48941;49.516;8.286;2023-05-03T05:02:51;101397.81;;;6.95;76.70
62849;BME280;48941;49.516;8.286;2023-05-03T05:05:19;101403.66;;;7.02;75.96
62849;BME280;48941;49.516;8.286;2023-05-03T05:07:48;101407.03;;;7.06;76.24
62849;BME280;48941;49.516;8.286;2023-05-03T05:10:16;101407.50;;;7.14;75.77
62849;BME280;48941;49.516;8.286;2023-05-03T05:12:44;101411.78;;;7.16;75.01
62849;BME280;48941;49.516;8.286;2023-05-03T05:15:12;101408.03;;;7.21;74.83
62849;BME280;48941;49.516;8.286;2023-05-03T05:17:40;101412.09;;;7.28;74.71
62849;BME280;48941;49.516;8.286;2023-05-03T05:20:09;101407.34;;;7.34;74.68
62849;BME280;48941;49.516;8.286;2023-05-03T05:22:38;101409.69;;;7.41;74.31
62849;BME280;48941;49.516;8.286;2023-05-03T05:25:08;101413.22;;;7.41;74.15
62849;BME280;48941;49.516;8.286;2023-05-03T05:27:36;101413.81;;;7.46;73.72
62849;BME280;48941;49.516;8.286;2023-05-03T05:30:05;101408.06;;;7.55;73.69
62849;BME280;48941;49.516;8.286;2023-05-03T05:32:33;101406.25;;;7.56;73.00
62849;BME280;48941;49.516;8.286;2023-05-03T05:35:01;101410.22;;;7.65;73.32
62849;BME280;48941;49.516;8.286;2023-05-03T05:37:31;101415.53;;;7.65;72.75
62849;BME280;48941;49.516;8.286;2023-05-03T05:39:58;101408.97;;;7.72;72.57
62849;BME280;48941;49.516;8.286;2023-05-03T05:42:28;101420.28;;;7.75;72.79
62849;BME280;48941;49.516;8.286;2023-05-03T05:44:56;101420.03;;;7.80;72.96
62849;BME280;48941;49.516;8.286;2023-05-03T05:47:23;101413.50;;;7.87;72.56
62849;BME280;48941;49.516;8.286;2023-05-03T05:49:52;101415.03;;;7.91;72.24
62849;BME280;48941;49.516;8.286;2023-05-03T05:52:20;101416.91;;;7.89;71.99
62849;BME280;48941;49.516;8.286;2023-05-03T05:54:48;101417.38;;;7.97;71.87
62849;BME280;48941;49.516;8.286;2023-05-03T05:57:16;101420.63;;;8.03;72.01
62849;BME280;48941;49.516;8.286;2023-05-03T05:59:45;101423.75;;;8.11;72.37
62849;BME280;48941;49.516;8.286;2023-05-03T06:02:14;101423.56;;;8.14;72.23
62849;BME280;48941;49.516;8.286;2023-05-03T06:04:43;101419.03;;;8.16;71.53
62849;BME280;48941;49.516;8.286;2023-05-03T06:07:13;101414.34;;;8.21;71.51
62849;BME280;48941;49.516;8.286;2023-05-03T06:09:41;101415.81;;;8.27;71.64
62849;BME280;48941;49.516;8.286;2023-05-03T06:12:09;101411.72;;;8.37;71.24
62849;BME280;48941;49.516;8.286;2023-05-03T06:14:37;101405.91;;;8.46;71.60
62849;BME280;48941;49.516;8.286;2023-05-03T06:17:15;101406.34;;;8.54;71.00
62849;BME280;48941;49.516;8.286;2023-05-03T06:19:43;101397.97;;;8.62;70.37
62849;BME280;48941;49.516;8.286;2023-05-03T06:22:14;101408.59;;;8.62;70.60
62849;BME280;48941;49.516;8.286;2023-05-03T06:24:41;101406.28;;;8.72;70.56
62849;BME280;48941;49.516;8.286;2023-05-03T06:27:09;101409.44;;;8.78;70.50
62849;BME280;48941;49.516;8.286;2023-05-03T06:29:37;101400.09;;;8.87;70.18
62849;BME280;48941;49.516;8.286;2023-05-03T06:32:05;101400.44;;;8.97;70.11
62849;BME280;48941;49.516;8.286;2023-05-03T06:34:34;101404.44;;;9.04;69.55
62849;BME280;48941;49.516;8.286;2023-05-03T06:37:02;101410.00;;;9.15;69.33
62849;BME280;48941;49.516;8.286;2023-05-03T06:39:29;101408.97;;;9.18;68.95
62849;BME280;48941;49.516;8.286;2023-05-03T06:41:57;101416.41;;;9.27;69.32
62849;BME280;48941;49.516;8.286;2023-05-03T06:44:25;101420.41;;;9.34;68.71
62849;BME280;48941;49.516;8.286;2023-05-03T06:46:53;101415.97;;;9.35;68.98
62849;BME280;48941;49.516;8.286;2023-05-03T06:49:21;101416.38;;;9.43;68.41
62849;BME280;48941;49.516;8.286;2023-05-03T06:51:50;101412.38;;;9.50;68.19
62849;BME280;48941;49.516;8.286;2023-05-03T06:54:18;101424.22;;;9.61;67.39
62849;BME280;48941;49.516;8.286;2023-05-03T06:56:46;101418.03;;;9.74;67.37
62849;BME280;48941;49.516;8.286;2023-05-03T06:59:15;101414.91;;;9.82;66.77
62849;BME280;48941;49.516;8.286;2023-05-03T07:01:43;101414.19;;;9.94;67.31
62849;BME280;48941;49.516;8.286;2023-05-03T07:04:11;101419.78;;;10.04;67.08
62849;BME280;48941;49.516;8.286;2023-05-03T07:06:40;101417.31;;;10.15;66.60
62849;BME280;48941;49.516;8.286;2023-05-03T07:09:23;101416.09;;;10.21;65.67
62849;BME280;48941;49.516;8.286;2023-05-03T07:12:08;101415.69;;;10.27;65.45
62849;BME280;48941;49.516;8.286;2023-05-03T07:14:37;101418.59;;;10.39;65.14
62849;BME280;48941;49.516;8.286;2023-05-03T07:17:05;101413.41;;;10.50;64.77
62849;BME280;48941;49.516;8.286;2023-05-03T07:19:34;101410.72;;;10.64;64.75
62849;BME280;48941;49.516;8.286;2023-05-03T07:22:03;101407.38;;;10.75;64.88
62849;BME280;48941;49.516;8.286;2023-05-03T07:24:32;101406.41;;;10.90;64.12
62849;BME280;48941;49.516;8.286;2023-05-03T07:27:00;101405.13;;;10.96;63.66
62849;BME280;48941;49.516;8.286;2023-05-03T07:29:29;101404.16;;;10.97;62.85
62849;BME280;48941;49.516;8.286;2023-05-03T07:31:57;101404.97;;;11.12;62.73
62849;BME280;48941;49.516;8.286;2023-05-03T07:34:25;101406.53;;;11.29;62.93
62849;BME280;48941;49.516;8.286;2023-05-03T07:36:53;101396.84;;;11.41;62.67
62849;BME280;48941;49.516;8.286;2023-05-03T07:39:21;101401.00;;;11.57;61.61
62849;BME280;48941;49.516;8.286;2023-05-03T07:41:51;101399.44;;;11.81;60.73
62849;BME280;48941;49.516;8.286;2023-05-03T07:44:19;101403.22;;;11.91;60.25
62849;BME280;48941;49.516;8.286;2023-05-03T07:46:46;101397.84;;;12.04;59.75
62849;BME280;48941;49.516;8.286;2023-05-03T07:49:14;101398.81;;;12.15;58.98
62849;BME280;48941;49.516;8.286;2023-05-03T07:51:42;101394.75;;;12.23;58.25
62849;BME280;48941;49.516;8.286;2023-05-03T07:54:10;101397.63;;;12.32;58.13
62849;BME280;48941;49.516;8.286;2023-05-03T07:56:38;101399.06;;;12.49;57.68
62849;BME280;48941;49.516;8.286;2023-05-03T07:59:07;101398.06;;;12.63;57.03
62849;BME280;48941;49.516;8.286;2023-05-03T08:01:36;101394.38;;;12.77;57.04
62849;BME280;48941;49.516;8.286;2023-05-03T08:04:04;101394.00;;;12.94;55.86
62849;BME280;48941;49.516;8.286;2023-05-03T08:06:32;101392.84;;;13.10;55.40
62849;BME280;48941;49.516;8.286;2023-05-03T08:09:03;101393.19;;;13.29;55.10
62849;BME280;48941;49.516;8.286;2023-05-03T08:11:31;101397.53;;;13.54;54.73
62849;BME280;48941;49.516;8.286;2023-05-03T08:13:59;101390.28;;;13.79;54.59
62849;BME280;48941;49.516;8.286;2023-05-03T08:16:28;101398.69;;;13.97;52.54
62849;BME280;48941;49.516;8.286;2023-05-03T08:18:56;101395.06;;;14.09;52.50
62849;BME280;48941;49.516;8.286;2023-05-03T08:21:24;101396.03;;;14.31;52.26
62849;BME280;48941;49.516;8.286;2023-05-03T08:23:54;101393.81;;;14.47;51.76
62849;BME280;48941;49.516;8.286;2023-05-03T08:26:21;101396.13;;;14.63;50.64
62849;BME280;48941;49.516;8.286;2023-05-03T08:28:49;101398.19;;;14.82;50.83
62849;BME280;48941;49.516;8.286;2023-05-03T08:31:17;101403.75;;;15.02;49.71
62849;BME280;48941;49.516;8.286;2023-05-03T08:33:46;101396.34;;;15.15;49.14
62849;BME280;48941;49.516;8.286;2023-05-03T08:36:14;101400.47;;;15.19;48.87
62849;BME280;48941;49.516;8.286;2023-05-03T08:38:42;101402.00;;;15.33;49.00
62849;BME280;48941;49.516;8.286;2023-05-03T08:41:18;101389.97;;;15.48;49.19
62849;BME280;48941;49.516;8.286;2023-05-03T08:43:51;101383.69;;;15.59;48.20
62849;BME280;48941;49.516;8.286;2023-05-03T08:46:19;101390.06;;;15.58;48.08
62849;BME280;48941;49.516;8.286;2023-05-03T08:48:50;101392.09;;;15.66;48.04
62849;BME280;48941;49.516;8.286;2023-05-03T08:51:18;101401.50;;;15.81;48.00
62849;BME280;48941;49.516;8.286;2023-05-03T08:53:47;101390.94;;;15.89;47.71
62849;BME280;48941;49.516;8.286;2023-05-03T08:56:22;101386.09;;;16.04;47.39
62849;BME280;48941;49.516;8.286;2023-05-03T08:58:51;101393.19;;;16.15;46.91
62849;BME280;48941;49.516;8.286;2023-05-03T09:01:19;101396.78;;;16.25;46.63
62849;BME280;48941;49.516;8.286;2023-05-03T09:03:51;101399.09;;;16.30;46.70
62849;BME280;48941;49.516;8.286;2023-05-03T09:06:20;101391.81;;;16.51;46.39
62849;BME280;48941;49.516;8.286;2023-05-03T09:08:48;101382.75;;;16.62;46.06
62849;BME280;48941;49.516;8.286;2023-05-03T09:11:23;101395.94;;;16.75;45.48
62849;BME280;48941;49.516;8.286;2023-05-03T09:13:51;101395.81;;;16.77;45.23
62849;BME280;48941;49.516;8.286;2023-05-03T09:16:23;101386.22;;;16.84;45.36
62849;BME280;48941;49.516;8.286;2023-05-03T09:18:58;101394.72;;;16.99;45.03
62849;BME280;48941;49.516;8.286;2023-05-03T09:21:26;101394.88;;;17.17;44.69
62849;BME280;48941;49.516;8.286;2023-05-03T09:23:54;101390.06;;;17.30;44.35
62849;BME280;48941;49.516;8.286;2023-05-03T09:26:26;101393.16;;;17.35;44.34
62849;BME280;48941;49.516;8.286;2023-05-03T09:28:54;101390.91;;;17.50;44.28
62849;BME280;48941;49.516;8.286;2023-05-03T09:31:24;101393.59;;;17.60;43.23
62849;BME280;48941;49.516;8.286;2023-05-03T09:33:52;101378.53;;;17.67;43.40
62849;BME280;48941;49.516;8.286;2023-05-03T09:36:21;101368.16;;;17.72;43.22
62849;BME280;48941;49.516;8.286;2023-05-03T09:38:50;101367.13;;;17.83;42.70
62849;BME280;48941;49.516;8.286;2023-05-03T09:41:28;101371.53;;;18.03;42.89
62849;BME280;48941;49.516;8.286;2023-05-03T09:43:56;101364.63;;;18.19;42.65
62849;BME280;48941;49.516;8.286;2023-05-03T09:46:28;101365.81;;;18.34;41.93
62849;BME280;48941;49.516;8.286;2023-05-03T09:48:57;101373.91;;;18.34;41.57
62849;BME280;48941;49.516;8.286;2023-05-03T09:51:26;101363.84;;;18.36;41.85
62849;BME280;48941;49.516;8.286;2023-05-03T09:53:55;101367.56;;;18.53;42.10
62849;BME280;48941;49.516;8.286;2023-05-03T09:56:24;101356.28;;;18.67;41.59
62849;BME280;48941;49.516;8.286;2023-05-03T09:58:53;101355.16;;;18.88;41.01
62849;BME280;48941;49.516;8.286;2023-05-03T10:01:23;101351.34;;;18.99;41.17
62849;BME280;48941;49.516;8.286;2023-05-03T10:03:52;101345.88;;;19.08;41.22
62849;BME280;48941;49.516;8.286;2023-05-03T10:06:24;101348.09;;;19.13;40.43
62849;BME280;48941;49.516;8.286;2023-05-03T10:08:59;101349.59;;;19.25;40.80
62849;BME280;48941;49.516;8.286;2023-05-03T10:11:33;101352.50;;;19.32;40.41
62849;BME280;48941;49.516;8.286;2023-05-03T10:14:03;101342.59;;;19.41;40.27
62849;BME280;48941;49.516;8.286;2023-05-03T10:16:35;101344.94;;;19.36;40.10
62849;BME280;48941;49.516;8.286;2023-05-03T10:19:07;101338.44;;;19.28;40.56
62849;BME280;48941;49.516;8.286;2023-05-03T10:21:54;101336.84;;;19.36;40.49
62849;BME280;48941;49.516;8.286;2023-05-03T10:24:24;101337.38;;;19.39;40.59
62849;BME280;48941;49.516;8.286;2023-05-03T10:26:54;101333.44;;;19.34;40.34
62849;BME280;48941;49.516;8.286;2023-05-03T10:29:45;101344.09;;;19.35;40.36
62849;BME280;48941;49.516;8.286;2023-05-03T10:32:28;101338.69;;;19.35;40.23
62849;BME280;48941;49.516;8.286;2023-05-03T10:34:56;101335.56;;;19.48;40.07
62849;BME280;48941;49.516;8.286;2023-05-03T10:37:29;101323.94;;;19.74;40.23
62849;BME280;48941;49.516;8.286;2023-05-03T10:40:04;101327.91;;;19.87;39.95
62849;BME280;48941;49.516;8.286;2023-05-03T10:42:32;101330.56;;;20.14;39.44
62849;BME280;48941;49.516;8.286;2023-05-03T10:45:00;101335.63;;;20.17;39.00
62849;BME280;48941;49.516;8.286;2023-05-03T10:47:29;101333.81;;;20.25;38.60
62849;BME280;48941;49.516;8.286;2023-05-03T10:50:24;101334.00;;;20.32;38.64
62849;BME280;48941;49.516;8.286;2023-05-03T10:52:53;101328.03;;;20.20;38.90
62849;BME280;48941;49.516;8.286;2023-05-03T10:55:22;101323.16;;;20.32;38.91
62849;BME280;48941;49.516;8.286;2023-05-03T10:57:53;101314.09;;;20.41;38.92
62849;BME280;48941;49.516;8.286;2023-05-03T11:00:26;101308.66;;;20.41;38.35
62849;BME280;48941;49.516;8.286;2023-05-03T11:03:06;101309.88;;;20.47;38.28
62849;BME280;48941;49.516;8.286;2023-05-03T11:05:36;101308.69;;;20.58;38.65
62849;BME280;48941;49.516;8.286;2023-05-03T11:08:12;101305.72;;;20.77;38.29
62849;BME280;48941;49.516;8.286;2023-05-03T11:10:44;101308.28;;;20.87;38.32
62849;BME280;48941;49.516;8.286;2023-05-03T11:13:12;101306.72;;;20.93;37.53
62849;BME280;48941;49.516;8.286;2023-05-03T11:15:41;101305.38;;;20.88;38.01
62849;BME280;48941;49.516;8.286;2023-05-03T11:18:09;101293.69;;;20.88;37.88
62849;BME280;48941;49.516;8.286;2023-05-03T11:20:38;101291.66;;;20.82;37.60
62849;BME280;48941;49.516;8.286;2023-05-03T11:23:06;101286.56;;;20.79;37.77
62849;BME280;48941;49.516;8.286;2023-05-03T11:25:34;101289.81;;;20.91;37.64
62849;BME280;48941;49.516;8.286;2023-05-03T11:28:04;101284.06;;;21.02;36.75
62849;BME280;48941;49.516;8.286;2023-05-03T11:30:33;101287.09;;;20.99;36.58
62849;BME280;48941;49.516;8.286;2023-05-03T11:33:02;101279.84;;;20.99;36.95
62849;BME280;48941;49.516;8.286;2023-05-03T11:35:30;101273.75;;;20.97;36.89
62849;BME280;48941;49.516;8.286;2023-05-03T11:37:58;101268.50;;;20.96;37.54
62849;BME280;48941;49.516;8.286;2023-05-03T11:40:26;101266.25;;;21.24;37.24
62849;BME280;48941;49.516;8.286;2023-05-03T11:42:55;101257.28;;;21.32;36.91
62849;BME280;48941;49.516;8.286;2023-05-03T11:45:27;101261.00;;;21.39;36.42
62849;BME280;48941;49.516;8.286;2023-05-03T11:47:56;101263.22;;;21.43;37.50
62849;BME280;48941;49.516;8.286;2023-05-03T11:50:43;101255.06;;;21.35;36.30
62849;BME280;48941;49.516;8.286;2023-05-03T11:53:12;101256.44;;;21.47;36.62
62849;BME280;48941;49.516;8.286;2023-05-03T11:55:41;101259.13;;;21.56;36.68
62849;BME280;48941;49.516;8.286;2023-05-03T11:58:12;101256.13;;;21.82;35.54
62849;BME280;48941;49.516;8.286;2023-05-03T12:00:43;101259.81;;;21.97;35.91
62849;BME280;48941;49.516;8.286;2023-05-03T12:03:15;101254.22;;;21.99;35.63
62849;BME280;48941;49.516;8.286;2023-05-03T12:05:44;101243.09;;;22.17;35.54
62849;BME280;48941;49.516;8.286;2023-05-03T12:08:14;101237.41;;;22.35;35.55
62849;BME280;48941;49.516;8.286;2023-05-03T12:10:47;101243.69;;;22.35;35.10
62849;BME280;48941;49.516;8.286;2023-05-03T12:13:26;101235.78;;;22.25;35.11
62849;BME280;48941;49.516;8.286;2023-05-03T12:15:58;101234.31;;;22.38;35.40
62849;BME280;48941;49.516;8.286;2023-05-03T12:18:45;101228.59;;;22.56;34.39
62849;BME280;48941;49.516;8.286;2023-05-03T12:21:16;101230.78;;;22.37;34.29
62849;BME280;48941;49.516;8.286;2023-05-03T12:23:47;101218.78;;;22.55;34.62
62849;BME280;48941;49.516;8.286;2023-05-03T12:26:17;101230.34;;;22.72;34.55
62849;BME280;48941;49.516;8.286;2023-05-03T12:28:46;101222.44;;;22.62;34.00
62849;BME280;48941;49.516;8.286;2023-05-03T12:31:16;101216.00;;;22.63;34.59
62849;BME280;48941;49.516;8.286;2023-05-03T12:33:44;101209.13;;;22.52;34.50
62849;BME280;48941;49.516;8.286;2023-05-03T12:36:29;101218.22;;;22.59;34.01
62849;BME280;48941;49.516;8.286;2023-05-03T12:39:02;101209.59;;;22.56;34.21
62849;BME280;48941;49.516;8.286;2023-05-03T12:41:35;101215.81;;;22.41;34.45
62849;BME280;48941;49.516;8.286;2023-05-03T12:44:06;101210.94;;;22.37;34.77
62849;BME280;48941;49.516;8.286;2023-05-03T12:46:37;101205.75;;;22.27;34.87
62849;BME280;48941;49.516;8.286;2023-05-03T12:49:10;101206.69;;;22.34;34.66
62849;BME280;48941;49.516;8.286;2023-05-03T12:51:41;101206.84;;;22.41;34.52
62849;BME280;48941;49.516;8.286;2023-05-03T12:54:09;101206.94;;;22.71;34.03
62849;BME280;48941;49.516;8.286;2023-05-03T12:56:37;101201.63;;;22.92;34.19
62849;BME280;48941;49.516;8.286;2023-05-03T12:59:07;101205.66;;;22.81;33.81
62849;BME280;48941;49.516;8.286;2023-05-03T13:01:39;101199.91;;;22.76;33.81
62849;BME280;48941;49.516;8.286;2023-05-03T13:04:10;101198.66;;;22.64;33.73
62849;BME280;48941;49.516;8.286;2023-05-03T13:06:41;101186.91;;;22.86;34.06
62849;BME280;48941;49.516;8.286;2023-05-03T13:09:10;101185.16;;;22.94;33.90